sensor_id;sensor_type;location;lat;lon;timestamp;pressure;altitude;pressure_sealevel;temperature;humidity
50123;BME280;36021;48.670;6.184;2022-12-13T00:01:32;98197.13;;;-2.21;100.00
50123;BME280;36021;48.670;6.184;2022-12-13T00:04:02;98195.13;;;-2.25;100.00
50123;BME280;36021;48.670;6.184;2022-12-13T00:06:28;98185.97;;;-2.24;100.00
50123;BME280;36021;48.670;6.184;2022-12-13T00:08:55;98181.78;;;-2.20;100.00
50123;BME280;36021;48.670;6.184;2022-12-13T00:11:21;98183.75;;;-2.16;100.00
50123;BME280;36021;48.670;6.184;2022-12-13T00:13:48;98191.38;;;-2.13;100.00
50123;BME280;36021;48.670;6.184;2022-12-13T00:16:16;98188.94;;;-2.14;100.00
50123;BME280;36021;48.670;6.184;2022-12-13T00:18:52;98186.91;;;-2.19;100.00
50123;BME280;36021;48.670;6.184;2022-12-13T00:21:23;98180.00;;;-2.26;100.00
50123;BME280;36021;48.670;6.184;2022-12-13T00:23:50;98185.28;;;-2.20;100.00
50123;BME280;36021;48.670;6.184;2022-12-13T00:26:19;98180.47;;;-2.18;100.00
50123;BME280;36021;48.670;6.184;2022-12-13T00:28:45;98177.31;;;-2.26;100.00
50123;BME280;36021;48.670;6.184;2022-12-13T00:31:14;98169.91;;;-2.31;100.00
50123;BME280;36021;48.670;6.184;2022-12-13T00:33:40;98178.09;;;-2.26;100.00
50123;BME280;36021;48.670;6.184;2022-12-13T00:36:06;98172.28;;;-2.23;100.00
50123;BME280;36021;48.670;6.184;2022-12-13T00:38:33;98168.16;;;-2.25;100.00
50123;BME280;36021;48.670;6.184;2022-12-13T00:40:59;98159.84;;;-2.24;100.00
50123;BME280;36021;48.670;6.184;2022-12-13T00:43:25;98159.94;;;-2.30;100.00
50123;BME280;36021;48.670;6.184;2022-12-13T00:45:51;98154.91;;;-2.27;100.00
50123;BME280;36021;48.670;6.184;2022-12-13T00:48:17;98148.44;;;-2.26;100.00
50123;BME280;36021;48.670;6.184;2022-12-13T00:50:44;98133.09;;;-2.14;100.00
50123;BME280;36021;48.670;6.184;2022-12-13T00:53:12;98140.59;;;-2.27;100.00
50123;BME280;36021;48.670;6.184;2022-12-13T00:55:41;98134.13;;;-2.15;100.00
50123;BME280;36021;48.670;6.184;2022-12-13T00:58:07;98139.06;;;-2.23;100.00
50123;BME280;36021;48.670;6.184;2022-12-13T01:00:32;98126.47;;;-2.06;100.00
50123;BME280;36021;48.670;6.184;2022-12-13T01:02:58;98125.91;;;-2.08;100.00
50123;BME280;36021;48.670;6.184;2022-12-13T01:05:24;98125.44;;;-2.05;100.00
50123;BME280;36021;48.670;6.184;2022-12-13T01:07:49;98123.22;;;-1.96;100.00
50123;BME280;36021;48.670;6.184;2022-12-13T01:10:15;98132.47;;;-1.92;100.00
50123;BME280;36021;48.670;6.184;2022-12-13T01:12:41;98130.09;;;-1.89;100.00
50123;BME280;36021;48.670;6.184;2022-12-13T01:15:07;98124.84;;;-1.95;100.00
50123;BME280;36021;48.670;6.184;2022-12-13T01:17:34;98126.09;;;-1.86;100.00
50123;BME280;36021;48.670;6.184;2022-12-13T01:20:01;98114.72;;;-1.88;100.00
50123;BME280;36021;48.670;6.184;2022-12-13T01:22:27;98119.19;;;-1.82;100.00
50123;BME280;36021;48.670;6.184;2022-12-13T01:24:54;98119.53;;;-1.79;100.00
50123;BME280;36021;48.670;6.184;2022-12-13T01:27:20;98124.78;;;-1.72;100.00
50123;BME280;36021;48.670;6.184;2022-12-13T01:29:46;98129.16;;;-1.71;100.00
50123;BME280;36021;48.670;6.184;2022-12-13T01:32:12;98122.44;;;-1.69;100.00
50123;BME280;36021;48.670;6.184;2022-12-13T01:34:38;98134.63;;;-1.66;100.00
50123;BME280;36021;48.670;6.184;2022-12-13T01:37:03;98123.25;;;-1.68;100.00
50123;BME280;36021;48.670;6.184;2022-12-13T01:39:31;98126.56;;;-1.78;100.00
50123;BME280;36021;48.670;6.184;2022-12-13T01:41:58;98124.91;;;-1.67;100.00
50123;BME280;36021;48.670;6.184;2022-12-13T01:47:29;98125.50;;;-1.65;100.00
50123;BME280;36021;48.670;6.184;2022-12-13T01:50:01;98120.44;;;-1.62;100.00
50123;BME280;36021;48.670;6.184;2022-12-13T01:52:31;98117.97;;;-1.63;100.00
50123;BME280;36021;48.670;6.184;2022-12-13T01:54:59;98114.47;;;-1.75;100.00
50123;BME280;36021;48.670;6.184;2022-12-13T01:57:26;98116.81;;;-1.67;100.00
50123;BME280;36021;48.670;6.184;2022-12-13T01:59:52;98129.59;;;-1.63;100.00
50123;BME280;36021;48.670;6.184;2022-12-13T02:02:19;98125.50;;;-1.65;100.00
50123;BME280;36021;48.670;6.184;2022-12-13T02:04:59;98122.31;;;-1.62;100.00
50123;BME280;36021;48.670;6.184;2022-12-13T02:07:30;98121.25;;;-1.61;100.00
50123;BME280;36021;48.670;6.184;2022-12-13T02:09:59;98126.06;;;-1.63;100.00
50123;BME280;36021;48.670;6.184;2022-12-13T02:12:30;98119.97;;;-1.70;100.00
50123;BME280;36021;48.670;6.184;2022-12-13T02:15:03;98120.91;;;-1.65;100.00
50123;BME280;36021;48.670;6.184;2022-12-13T02:18:32;98123.69;;;-1.60;100.00
50123;BME280;36021;48.670;6.184;2022-12-13T02:29:01;98103.47;;;-1.57;100.00
50123;BME280;36021;48.670;6.184;2022-12-13T02:31:48;98099.44;;;-1.71;100.00
50123;BME280;36021;48.670;6.184;2022-12-13T02:34:26;98102.22;;;-1.66;100.00
50123;BME280;36021;48.670;6.184;2022-12-13T02:39:47;98102.63;;;-1.74;100.00
50123;BME280;36021;48.670;6.184;2022-12-13T02:42:27;98097.31;;;-1.69;100.00
50123;BME280;36021;48.670;6.184;2022-12-13T02:45:06;98090.81;;;-1.96;100.00
50123;BME280;36021;48.670;6.184;2022-12-13T02:47:38;98100.19;;;-1.87;100.00
50123;BME280;36021;48.670;6.184;2022-12-13T02:50:07;98100.28;;;-1.82;100.00
50123;BME280;36021;48.670;6.184;2022-12-13T02:52:34;98105.09;;;-1.84;100.00
50123;BME280;36021;48.670;6.184;2022-12-13T02:55:06;98093.66;;;-2.15;100.00
50123;BME280;36021;48.670;6.184;2022-12-13T02:57:37;98099.84;;;-2.02;100.00
50123;BME280;36021;48.670;6.184;2022-12-13T03:00:09;98093.31;;;-2.06;100.00
50123;BME280;36021;48.670;6.184;2022-12-13T03:03:01;98092.22;;;-2.05;100.00
50123;BME280;36021;48.670;6.184;2022-12-13T03:18:04;98095.75;;;-1.93;100.00
50123;BME280;36021;48.670;6.184;2022-12-13T03:20:45;98087.78;;;-2.00;100.00
50123;BME280;36021;48.670;6.184;2022-12-13T03:23:12;98089.75;;;-1.95;100.00
50123;BME280;36021;48.670;6.184;2022-12-13T03:25:40;98093.47;;;-1.85;100.00
50123;BME280;36021;48.670;6.184;2022-12-13T03:28:06;98094.44;;;-1.91;100.00
50123;BME280;36021;48.670;6.184;2022-12-13T03:30:33;98095.19;;;-2.07;100.00
50123;BME280;36021;48.670;6.184;2022-12-13T03:32:59;98088.22;;;-1.91;100.00
50123;BME280;36021;48.670;6.184;2022-12-13T03:35:25;98098.06;;;-1.85;100.00
50123;BME280;36021;48.670;6.184;2022-12-13T03:37:51;98099.56;;;-1.78;100.00
50123;BME280;36021;48.670;6.184;2022-12-13T03:40:18;98091.34;;;-1.83;100.00
50123;BME280;36021;48.670;6.184;2022-12-13T03:42:44;98092.09;;;-1.99;100.00
50123;BME280;36021;48.670;6.184;2022-12-13T03:45:09;98097.09;;;-1.79;100.00
50123;BME280;36021;48.670;6.184;2022-12-13T03:47:35;98085.22;;;-2.30;100.00
50123;BME280;36021;48.670;6.184;2022-12-13T03:50:01;98075.94;;;-2.11;100.00
50123;BME280;36021;48.670;6.184;2022-12-13T03:52:27;98085.69;;;-2.09;100.00
50123;BME280;36021;48.670;6.184;2022-12-13T03:54:53;98075.22;;;-2.06;100.00
50123;BME280;36021;48.670;6.184;2022-12-13T03:57:19;98084.34;;;-1.95;100.00
50123;BME280;36021;48.670;6.184;2022-12-13T03:59:45;98082.59;;;-2.01;100.00
50123;BME280;36021;48.670;6.184;2022-12-13T04:02:10;98076.72;;;-1.98;100.00
50123;BME280;36021;48.670;6.184;2022-12-13T04:04:36;98074.41;;;-2.06;100.00
50123;BME280;36021;48.670;6.184;2022-12-13T04:07:03;98085.88;;;-1.99;100.00
50123;BME280;36021;48.670;6.184;2022-12-13T04:09:29;98089.06;;;-2.02;100.00
50123;BME280;36021;48.670;6.184;2022-12-13T04:11:54;98071.59;;;-2.12;100.00
50123;BME280;36021;48.670;6.184;2022-12-13T04:14:38;98076.84;;;-2.05;100.00
50123;BME280;36021;48.670;6.184;2022-12-13T04:17:04;98067.38;;;-2.07;100.00
50123;BME280;36021;48.670;6.184;2022-12-13T04:19:30;98067.72;;;-2.04;100.00
50123;BME280;36021;48.670;6.184;2022-12-13T04:21:55;98077.06;;;-1.95;100.00
50123;BME280;36021;48.670;6.184;2022-12-13T04:24:23;98065.34;;;-2.00;100.00
50123;BME280;36021;48.670;6.184;2022-12-13T04:26:50;98055.88;;;-2.15;100.00
50123;BME280;36021;48.670;6.184;2022-12-13T04:29:18;98058.22;;;-2.06;100.00
50123;BME280;36021;48.670;6.184;2022-12-13T04:31:43;98062.91;;;-2.14;100.00
50123;BME280;36021;48.670;6.184;2022-12-13T04:34:09;98060.31;;;-2.08;100.00
50123;BME280;36021;48.670;6.184;2022-12-13T04:36:35;98068.75;;;-2.05;100.00
50123;BME280;36021;48.670;6.184;2022-12-13T04:39:01;98058.88;;;-1.99;100.00
50123;BME280;36021;48.670;6.184;2022-12-13T04:41:27;98056.31;;;-1.94;100.00
50123;BME280;36021;48.670;6.184;2022-12-13T04:43:53;98047.16;;;-1.93;100.00
50123;BME280;36021;48.670;6.184;2022-12-13T04:46:20;98046.06;;;-1.92;100.00
50123;BME280;36021;48.670;6.184;2022-12-13T04:48:46;98047.56;;;-2.13;100.00
50123;BME280;36021;48.670;6.184;2022-12-13T04:51:13;98045.56;;;-2.18;100.00
50123;BME280;36021;48.670;6.184;2022-12-13T04:53:42;98047.91;;;-2.09;100.00
50123;BME280;36021;48.670;6.184;2022-12-13T04:56:07;98052.13;;;-2.14;100.00
50123;BME280;36021;48.670;6.184;2022-12-13T04:58:33;98052.13;;;-2.14;100.00
50123;BME280;36021;48.670;6.184;2022-12-13T05:00:59;98050.88;;;-2.34;100.00
50123;BME280;36021;48.670;6.184;2022-12-13T05:03:24;98052.25;;;-2.20;100.00
50123;BME280;36021;48.670;6.184;2022-12-13T05:05:50;98044.06;;;-2.37;100.00
50123;BME280;36021;48.670;6.184;2022-12-13T05:08:16;98047.94;;;-2.33;100.00
50123;BME280;36021;48.670;6.184;2022-12-13T05:10:42;98036.94;;;-2.43;100.00
50123;BME280;36021;48.670;6.184;2022-12-13T05:13:07;98038.31;;;-2.52;100.00
50123;BME280;36021;48.670;6.184;2022-12-13T05:15:33;98039.63;;;-2.43;100.00
50123;BME280;36021;48.670;6.184;2022-12-13T05:18:04;98038.31;;;-2.52;100.00
50123;BME280;36021;48.670;6.184;2022-12-13T05:20:31;98027.69;;;-2.58;100.00
50123;BME280;36021;48.670;6.184;2022-12-13T05:22:58;98044.88;;;-2.71;100.00
50123;BME280;36021;48.670;6.184;2022-12-13T05:25:25;98042.66;;;-2.74;100.00
50123;BME280;36021;48.670;6.184;2022-12-13T05:27:51;98040.22;;;-2.64;100.00
50123;BME280;36021;48.670;6.184;2022-12-13T05:30:18;98041.25;;;-2.53;100.00
50123;BME280;36021;48.670;6.184;2022-12-13T05:32:44;98038.09;;;-2.50;100.00
50123;BME280;36021;48.670;6.184;2022-12-13T05:35:14;98036.09;;;-2.67;100.00
50123;BME280;36021;48.670;6.184;2022-12-13T05:37:40;98037.88;;;-2.72;100.00
50123;BME280;36021;48.670;6.184;2022-12-13T05:40:06;98027.81;;;-2.65;100.00
50123;BME280;36021;48.670;6.184;2022-12-13T05:42:32;98031.44;;;-2.59;100.00
50123;BME280;36021;48.670;6.184;2022-12-13T05:44:58;98032.25;;;-2.59;100.00
50123;BME280;36021;48.670;6.184;2022-12-13T05:47:23;98033.78;;;-2.63;100.00
50123;BME280;36021;48.670;6.184;2022-12-13T05:49:49;98034.00;;;-2.76;100.00
50123;BME280;36021;48.670;6.184;2022-12-13T05:52:20;98025.53;;;-2.68;100.00
50123;BME280;36021;48.670;6.184;2022-12-13T05:54:47;98036.22;;;-2.73;100.00
50123;BME280;36021;48.670;6.184;2022-12-13T05:57:13;98033.06;;;-2.70;100.00
50123;BME280;36021;48.670;6.184;2022-12-13T05:59:39;98028.25;;;-2.68;100.00
50123;BME280;36021;48.670;6.184;2022-12-13T06:02:05;98032.72;;;-2.62;100.00
50123;BME280;36021;48.670;6.184;2022-12-13T06:04:31;98030.38;;;-2.82;100.00
50123;BME280;36021;48.670;6.184;2022-12-13T06:06:57;98038.81;;;-3.01;100.00
50123;BME280;36021;48.670;6.184;2022-12-13T06:09:22;98039.03;;;-2.91;100.00
50123;BME280;36021;48.670;6.184;2022-12-13T06:11:48;98041.84;;;-2.86;100.00
50123;BME280;36021;48.670;6.184;2022-12-13T06:14:15;98049.94;;;-2.75;100.00
50123;BME280;36021;48.670;6.184;2022-12-13T06:16:40;98048.31;;;-2.76;100.00
50123;BME280;36021;48.670;6.184;2022-12-13T06:19:06;98050.06;;;-2.70;100.00
50123;BME280;36021;48.670;6.184;2022-12-13T06:21:34;98064.59;;;-2.59;100.00
50123;BME280;36021;48.670;6.184;2022-12-13T06:24:00;98062.13;;;-2.60;100.00
50123;BME280;36021;48.670;6.184;2022-12-13T06:26:26;98068.00;;;-2.64;100.00
50123;BME280;36021;48.670;6.184;2022-12-13T06:28:52;98066.34;;;-2.65;100.00
50123;BME280;36021;48.670;6.184;2022-12-13T06:31:18;98062.97;;;-2.60;100.00
50123;BME280;36021;48.670;6.184;2022-12-13T06:33:43;98056.03;;;-2.68;100.00
50123;BME280;36021;48.670;6.184;2022-12-13T06:36:09;98049.59;;;-2.67;100.00
50123;BME280;36021;48.670;6.184;2022-12-13T06:38:35;98054.28;;;-2.62;100.00
50123;BME280;36021;48.670;6.184;2022-12-13T06:41:12;98048.31;;;-2.52;100.00
50123;BME280;36021;48.670;6.184;2022-12-13T06:43:42;98052.50;;;-2.45;100.00
50123;BME280;36021;48.670;6.184;2022-12-13T06:46:09;98056.53;;;-2.59;100.00
50123;BME280;36021;48.670;6.184;2022-12-13T06:48:35;98058.97;;;-2.46;100.00
50123;BME280;36021;48.670;6.184;2022-12-13T06:51:02;98057.44;;;-2.42;100.00
50123;BME280;36021;48.670;6.184;2022-12-13T06:53:30;98052.84;;;-2.41;100.00
50123;BME280;36021;48.670;6.184;2022-12-13T06:55:56;98054.72;;;-2.42;100.00
50123;BME280;36021;48.670;6.184;2022-12-13T06:58:22;98064.38;;;-2.69;100.00
50123;BME280;36021;48.670;6.184;2022-12-13T07:00:49;98067.75;;;-2.50;100.00
50123;BME280;36021;48.670;6.184;2022-12-13T07:03:14;98071.03;;;-2.48;100.00
50123;BME280;36021;48.670;6.184;2022-12-13T07:05:40;98078.41;;;-2.32;100.00
50123;BME280;36021;48.670;6.184;2022-12-13T07:08:06;98066.91;;;-2.28;100.00
50123;BME280;36021;48.670;6.184;2022-12-13T07:10:32;98065.41;;;-2.47;100.00
50123;BME280;36021;48.670;6.184;2022-12-13T07:12:58;98075.25;;;-2.41;100.00
50123;BME280;36021;48.670;6.184;2022-12-13T07:15:23;98072.56;;;-2.41;100.00
50123;BME280;36021;48.670;6.184;2022-12-13T07:17:50;98078.66;;;-2.34;100.00
50123;BME280;36021;48.670;6.184;2022-12-13T07:20:17;98081.94;;;-2.32;100.00
50123;BME280;36021;48.670;6.184;2022-12-13T07:22:43;98077.00;;;-2.35;100.00
50123;BME280;36021;48.670;6.184;2022-12-13T07:25:10;98085.47;;;-2.43;100.00
50123;BME280;36021;48.670;6.184;2022-12-13T07:27:36;98083.69;;;-2.37;100.00
50123;BME280;36021;48.670;6.184;2022-12-13T07:30:07;98096.50;;;-2.33;100.00
50123;BME280;36021;48.670;6.184;2022-12-13T07:32:33;98094.13;;;-2.41;100.00
50123;BME280;36021;48.670;6.184;2022-12-13T07:34:59;98082.44;;;-2.46;100.00
50123;BME280;36021;48.670;6.184;2022-12-13T07:37:24;98081.94;;;-2.32;100.00
50123;BME280;36021;48.670;6.184;2022-12-13T07:39:50;98081.34;;;-2.45;100.00
50123;BME280;36021;48.670;6.184;2022-12-13T07:42:16;98085.34;;;-2.59;100.00
50123;BME280;36021;48.670;6.184;2022-12-13T07:44:42;98085.69;;;-2.44;100.00
50123;BME280;36021;48.670;6.184;2022-12-13T07:47:07;98092.84;;;-2.50;100.00
50123;BME280;36021;48.670;6.184;2022-12-13T07:49:33;98097.75;;;-2.35;100.00
50123;BME280;36021;48.670;6.184;2022-12-13T07:51:59;98097.88;;;-2.42;100.00
50123;BME280;36021;48.670;6.184;2022-12-13T07:54:24;98087.22;;;-2.37;100.00
50123;BME280;36021;48.670;6.184;2022-12-13T07:56:50;98088.84;;;-2.24;100.00
50123;BME280;36021;48.670;6.184;2022-12-13T07:59:16;98084.16;;;-2.17;100.00
50123;BME280;36021;48.670;6.184;2022-12-13T08:01:41;98085.34;;;-2.13;100.00
50123;BME280;36021;48.670;6.184;2022-12-13T08:04:07;98087.31;;;-2.08;100.00
50123;BME280;36021;48.670;6.184;2022-12-13T08:06:35;98090.47;;;-2.00;100.00
50123;BME280;36021;48.670;6.184;2022-12-13T08:09:02;98084.47;;;-1.90;100.00
50123;BME280;36021;48.670;6.184;2022-12-13T08:11:28;98079.41;;;-1.87;100.00
50123;BME280;36021;48.670;6.184;2022-12-13T08:13:53;98084.38;;;-2.07;100.00
50123;BME280;36021;48.670;6.184;2022-12-13T08:16:19;98083.50;;;-1.84;100.00
50123;BME280;36021;48.670;6.184;2022-12-13T08:18:45;98087.69;;;-1.65;100.00
50123;BME280;36021;48.670;6.184;2022-12-13T08:21:13;98093.66;;;-1.63;100.00
50123;BME280;36021;48.670;6.184;2022-12-13T08:23:40;98099.38;;;-1.48;100.00
50123;BME280;36021;48.670;6.184;2022-12-13T08:26:07;98100.19;;;-1.47;100.00
50123;BME280;36021;48.670;6.184;2022-12-13T08:28:34;98093.03;;;-1.53;100.00
50123;BME280;36021;48.670;6.184;2022-12-13T08:31:10;98089.91;;;-1.62;100.00
50123;BME280;36021;48.670;6.184;2022-12-13T08:33:37;98090.47;;;-1.60;100.00
50123;BME280;36021;48.670;6.184;2022-12-13T08:36:12;98082.81;;;-1.51;100.00
50123;BME280;36021;48.670;6.184;2022-12-13T08:38:40;98089.53;;;-1.54;100.00
50123;BME280;36021;48.670;6.184;2022-12-13T08:41:06;98087.19;;;-1.62;100.00
50123;BME280;36021;48.670;6.184;2022-12-13T08:43:31;98094.38;;;-1.39;100.00
50123;BME280;36021;48.670;6.184;2022-12-13T08:45:57;98085.38;;;-1.45;100.00
50123;BME280;36021;48.670;6.184;2022-12-13T08:48:23;98083.78;;;-1.29;100.00
50123;BME280;36021;48.670;6.184;2022-12-13T08:50:49;98083.06;;;-1.25;100.00
50123;BME280;36021;48.670;6.184;2022-12-13T08:53:15;98084.00;;;-1.31;100.00
50123;BME280;36021;48.670;6.184;2022-12-13T08:55:41;98089.59;;;-1.21;100.00
50123;BME280;36021;48.670;6.184;2022-12-13T08:58:07;98083.25;;;-1.15;100.00
50123;BME280;36021;48.670;6.184;2022-12-13T09:00:34;98078.91;;;-1.16;100.00
50123;BME280;36021;48.670;6.184;2022-12-13T09:03:01;98080.53;;;-0.98;100.00
50123;BME280;36021;48.670;6.184;2022-12-13T09:05:30;98071.78;;;-1.05;100.00
50123;BME280;36021;48.670;6.184;2022-12-13T09:07:59;98082.19;;;-0.80;100.00
50123;BME280;36021;48.670;6.184;2022-12-13T09:10:27;98074.41;;;-0.60;100.00
50123;BME280;36021;48.670;6.184;2022-12-13T09:12:55;98076.69;;;-0.52;100.00
50123;BME280;36021;48.670;6.184;2022-12-13T09:15:25;98072.94;;;-0.51;100.00
50123;BME280;36021;48.670;6.184;2022-12-13T09:17:50;98070.94;;;-0.39;100.00
50123;BME280;36021;48.670;6.184;2022-12-13T09:20:16;98067.34;;;-0.44;100.00
50123;BME280;36021;48.670;6.184;2022-12-13T09:22:42;98075.03;;;-0.20;100.00
50123;BME280;36021;48.670;6.184;2022-12-13T09:25:08;98079.44;;;-0.14;100.00
50123;BME280;36021;48.670;6.184;2022-12-13T09:27:34;98090.06;;;0.10;100.00
50123;BME280;36021;48.670;6.184;2022-12-13T09:30:06;98082.38;;;0.45;100.00
50123;BME280;36021;48.670;6.184;2022-12-13T09:32:32;98086.22;;;0.49;100.00
50123;BME280;36021;48.670;6.184;2022-12-13T09:34:58;98081.28;;;0.68;100.00
50123;BME280;36021;48.670;6.184;2022-12-13T09:37:24;98077.69;;;0.62;100.00
50123;BME280;36021;48.670;6.184;2022-12-13T09:39:49;98089.25;;;0.79;100.00
50123;BME280;36021;48.670;6.184;2022-12-13T09:42:22;98085.47;;;1.07;100.00
50123;BME280;36021;48.670;6.184;2022-12-13T09:44:55;98093.31;;;1.35;100.00
50123;BME280;36021;48.670;6.184;2022-12-13T09:47:40;98088.09;;;1.29;100.00
50123;BME280;36021;48.670;6.184;2022-12-13T09:50:12;98088.63;;;1.26;100.00
50123;BME280;36021;48.670;6.184;2022-12-13T09:52:40;98089.22;;;1.33;100.00
50123;BME280;36021;48.670;6.184;2022-12-13T09:55:18;98086.03;;;1.41;100.00
50123;BME280;36021;48.670;6.184;2022-12-13T09:57:46;98081.28;;;1.95;100.00
50123;BME280;36021;48.670;6.184;2022-12-13T10:00:15;98080.50;;;2.04;100.00
50123;BME280;36021;48.670;6.184;2022-12-13T10:02:54;98077.47;;;2.53;100.00
50123;BME280;36021;48.670;6.184;2022-12-13T10:05:37;98071.03;;;2.79;100.00
50123;BME280;36021;48.670;6.184;2022-12-13T10:08:05;98069.13;;;2.85;100.00
50123;BME280;36021;48.670;6.184;2022-12-13T10:10:32;98062.03;;;2.74;100.00
50123;BME280;36021;48.670;6.184;2022-12-13T10:13:24;98058.50;;;2.78;100.00
50123;BME280;36021;48.670;6.184;2022-12-13T10:16:01;98062.94;;;3.40;100.00
50123;BME280;36021;48.670;6.184;2022-12-13T10:18:37;98055.25;;;3.87;100.00
50123;BME280;36021;48.670;6.184;2022-12-13T10:21:10;98051.19;;;3.85;100.00
50123;BME280;36021;48.670;6.184;2022-12-13T10:23:39;98047.66;;;3.89;100.00
50123;BME280;36021;48.670;6.184;2022-12-13T10:26:11;98048.69;;;4.03;100.00
50123;BME280;36021;48.670;6.184;2022-12-13T10:28:38;98043.25;;;3.98;100.00
50123;BME280;36021;48.670;6.184;2022-12-13T10:31:05;98038.59;;;4.04;100.00
50123;BME280;36021;48.670;6.184;2022-12-13T10:33:33;98046.56;;;3.75;100.00
50123;BME280;36021;48.670;6.184;2022-12-13T10:38:44;98044.16;;;3.33;100.00
50123;BME280;36021;48.670;6.184;2022-12-13T10:41:37;98037.34;;;3.15;100.00
50123;BME280;36021;48.670;6.184;2022-12-13T10:46:39;98047.09;;;2.91;100.00
50123;BME280;36021;48.670;6.184;2022-12-13T10:49:16;98043.88;;;3.09;100.00
50123;BME280;36021;48.670;6.184;2022-12-13T10:51:42;98043.25;;;2.72;100.00
50123;BME280;36021;48.670;6.184;2022-12-13T10:54:35;98043.28;;;2.92;100.00
50123;BME280;36021;48.670;6.184;2022-12-13T10:57:02;98039.69;;;2.56;100.00
50123;BME280;36021;48.670;6.184;2022-12-13T10:59:31;98030.16;;;2.59;100.00
50123;BME280;36021;48.670;6.184;2022-12-13T11:01:58;98022.59;;;2.76;100.00
50123;BME280;36021;48.670;6.184;2022-12-13T11:04:33;98022.31;;;2.73;100.00
50123;BME280;36021;48.670;6.184;2022-12-13T11:07:18;98029.66;;;2.67;100.00
50123;BME280;36021;48.670;6.184;2022-12-13T11:09:46;98029.16;;;2.95;100.00
50123;BME280;36021;48.670;6.184;2022-12-13T11:12:14;98029.16;;;2.90;100.00
50123;BME280;36021;48.670;6.184;2022-12-13T11:17:23;98025.59;;;2.85;100.00
50123;BME280;36021;48.670;6.184;2022-12-13T11:19:55;98026.41;;;2.80;100.00
50123;BME280;36021;48.670;6.184;2022-12-13T11:22:44;98024.78;;;2.74;100.00
50123;BME280;36021;48.670;6.184;2022-12-13T11:25:32;98019.03;;;2.60;100.00
50123;BME280;36021;48.670;6.184;2022-12-13T11:30:44;98012.28;;;2.83;100.00
50123;BME280;36021;48.670;6.184;2022-12-13T11:38:35;98001.38;;;2.68;100.00
50123;BME280;36021;48.670;6.184;2022-12-13T11:41:08;98001.41;;;2.83;100.00
50123;BME280;36021;48.670;6.184;2022-12-13T11:43:47;97993.22;;;2.98;100.00
50123;BME280;36021;48.670;6.184;2022-12-13T11:46:21;97994.34;;;3.07;100.00
50123;BME280;36021;48.670;6.184;2022-12-13T11:48:56;97995.13;;;2.98;100.00
50123;BME280;36021;48.670;6.184;2022-12-13T11:51:33;97986.13;;;2.62;100.00
50123;BME280;36021;48.670;6.184;2022-12-13T11:54:22;97988.34;;;2.80;100.00
50123;BME280;36021;48.670;6.184;2022-12-13T11:56:50;97991.59;;;2.92;100.00
50123;BME280;36021;48.670;6.184;2022-12-13T11:59:41;97988.88;;;3.12;100.00
50123;BME280;36021;48.670;6.184;2022-12-13T12:04:54;97978.81;;;3.43;100.00
50123;BME280;36021;48.670;6.184;2022-12-13T12:07:38;97973.09;;;3.40;100.00
50123;BME280;36021;48.670;6.184;2022-12-13T12:12:41;97973.59;;;3.57;100.00
50123;BME280;36021;48.670;6.184;2022-12-13T12:17:41;97976.06;;;3.48;100.00
50123;BME280;36021;48.670;6.184;2022-12-13T12:20:15;97959.94;;;3.72;100.00
50123;BME280;36021;48.670;6.184;2022-12-13T12:25:54;97953.94;;;3.75;100.00
50123;BME280;36021;48.670;6.184;2022-12-13T12:31:55;97953.47;;;3.38;100.00
50123;BME280;36021;48.670;6.184;2022-12-13T12:45:03;97939.97;;;4.51;100.00
50123;BME280;36021;48.670;6.184;2022-12-13T12:48:08;97937.75;;;4.58;100.00
50123;BME280;36021;48.670;6.184;2022-12-13T12:56:30;97933.31;;;4.62;100.00
50123;BME280;36021;48.670;6.184;2022-12-13T13:04:25;97925.91;;;6.11;100.00
50123;BME280;36021;48.670;6.184;2022-12-13T13:07:25;97914.69;;;6.69;100.00
50123;BME280;36021;48.670;6.184;2022-12-13T13:09:53;97927.03;;;6.66;100.00
50123;BME280;36021;48.670;6.184;2022-12-13T13:12:19;97911.56;;;6.19;100.00
50123;BME280;36021;48.670;6.184;2022-12-13T13:14:46;97911.53;;;6.94;100.00
50123;BME280;36021;48.670;6.184;2022-12-13T13:19:53;97906.41;;;6.74;100.00
50123;BME280;36021;48.670;6.184;2022-12-13T13:22:33;97903.66;;;6.74;100.00
50123;BME280;36021;48.670;6.184;2022-12-13T13:27:29;97910.84;;;6.70;100.00
50123;BME280;36021;48.670;6.184;2022-12-13T13:30:25;97906.06;;;6.94;100.00
50123;BME280;36021;48.670;6.184;2022-12-13T13:32:53;97899.31;;;7.05;100.00
50123;BME280;36021;48.670;6.184;2022-12-13T13:38:02;97890.16;;;7.28;100.00
50123;BME280;36021;48.670;6.184;2022-12-13T13:40:37;97891.44;;;6.85;100.00
50123;BME280;36021;48.670;6.184;2022-12-13T13:46:08;97884.56;;;6.69;100.00
50123;BME280;36021;48.670;6.184;2022-12-13T13:56:44;97879.53;;;6.20;100.00
50123;BME280;36021;48.670;6.184;2022-12-13T14:23:10;97880.97;;;5.22;100.00
50123;BME280;36021;48.670;6.184;2022-12-13T14:31:27;97870.22;;;5.02;100.00
50123;BME280;36021;48.670;6.184;2022-12-13T14:33:58;97866.03;;;4.81;100.00
50123;BME280;36021;48.670;6.184;2022-12-13T14:36:30;97875.59;;;5.12;100.00
50123;BME280;36021;48.670;6.184;2022-12-13T14:39:05;97880.25;;;4.78;100.00
50123;BME280;36021;48.670;6.184;2022-12-13T14:41:31;97877.22;;;4.46;100.00
50123;BME280;36021;48.670;6.184;2022-12-13T14:44:24;97884.06;;;4.04;100.00
50123;BME280;36021;48.670;6.184;2022-12-13T14:46:53;97891.88;;;3.57;100.00
50123;BME280;36021;48.670;6.184;2022-12-13T14:49:21;97894.94;;;3.35;100.00
50123;BME280;36021;48.670;6.184;2022-12-13T14:51:49;97889.53;;;3.30;100.00
50123;BME280;36021;48.670;6.184;2022-12-13T14:54:26;97893.13;;;3.00;100.00
50123;BME280;36021;48.670;6.184;2022-12-13T14:56:55;97899.63;;;2.69;100.00
50123;BME280;36021;48.670;6.184;2022-12-13T14:59:20;97893.94;;;2.60;100.00
50123;BME280;36021;48.670;6.184;2022-12-13T15:01:56;97886.03;;;2.59;100.00
50123;BME280;36021;48.670;6.184;2022-12-13T15:07:07;97884.38;;;2.13;100.00
50123;BME280;36021;48.670;6.184;2022-12-13T15:09:39;97872.06;;;1.85;100.00
50123;BME280;36021;48.670;6.184;2022-12-13T15:12:14;97863.59;;;1.71;100.00
50123;BME280;36021;48.670;6.184;2022-12-13T15:14:56;97857.28;;;1.50;100.00